createdAt,value
2023-02-02T00:00:51.835Z,25.83
2023-02-02T00:03:18.659Z,26.13
2023-02-02T00:05:46.366Z,24.73
2023-02-02T00:08:13.748Z,24.60
2023-02-02T00:10:40.396Z,19.13
2023-02-02T00:13:06.948Z,16.23
2023-02-02T00:15:33.468Z,22.25
2023-02-02T00:17:59.956Z,17.27
2023-02-02T00:20:26.490Z,22.73
2023-02-02T00:22:53.077Z,24.17
2023-02-02T00:25:19.608Z,26.42
2023-02-02T00:27:46.589Z,25.30
2023-02-02T00:30:13.391Z,20.77
2023-02-02T00:32:40.835Z,22.08
2023-02-02T00:35:08.271Z,22.27
2023-02-02T00:37:35.004Z,24.23
2023-02-02T00:40:02.064Z,20.15
2023-02-02T00:42:28.738Z,23.58
2023-02-02T00:45:13.870Z,20.42
2023-02-02T00:47:40.686Z,17.83
2023-02-02T00:50:07.387Z,19.08
2023-02-02T00:52:33.938Z,19.52
2023-02-02T00:55:00.584Z,23.55
2023-02-02T00:57:28.942Z,23.83
2023-02-02T00:59:55.782Z,20.55
2023-02-02T01:02:22.709Z,24.35
2023-02-02T01:04:49.324Z,23.20
2023-02-02T01:07:16.181Z,20.00
2023-02-02T01:09:43.242Z,24.60
2023-02-02T01:12:09.817Z,17.63
2023-02-02T01:14:36.368Z,25.25
2023-02-02T01:17:03.180Z,17.90
2023-02-02T01:19:29.767Z,26.13
2023-02-02T01:21:56.422Z,22.65
2023-02-02T01:24:23.029Z,27.98
2023-02-02T01:26:49.704Z,21.02
2023-02-02T01:29:16.293Z,27.52
2023-02-02T01:31:43.110Z,18.45
2023-02-02T01:34:10.200Z,21.42
2023-02-02T01:36:36.846Z,23.73
2023-02-02T01:39:03.483Z,18.83
2023-02-02T01:41:30.135Z,15.55
2023-02-02T01:44:06.604Z,18.15
2023-02-02T01:46:34.478Z,25.40
2023-02-02T01:49:06.712Z,25.67
2023-02-02T01:51:39.725Z,21.77
2023-02-02T01:54:08.914Z,24.27
2023-02-02T01:56:39.621Z,24.58
2023-02-02T01:59:06.787Z,27.90
2023-02-02T02:01:33.539Z,30.42
2023-02-02T02:04:00.313Z,21.13
2023-02-02T02:06:28.298Z,21.45
2023-02-02T02:08:55.276Z,22.52
2023-02-02T02:11:22.710Z,21.58
2023-02-02T02:14:09.015Z,17.80
2023-02-02T02:16:38.588Z,19.55
2023-02-02T02:19:07.950Z,19.60
2023-02-02T02:22:01.199Z,23.67
2023-02-02T02:24:46.962Z,21.95
2023-02-02T02:27:24.381Z,26.05
2023-02-02T02:29:51.096Z,27.48
2023-02-02T02:32:18.046Z,21.90
2023-02-02T02:34:50.881Z,20.63
2023-02-02T02:37:36.566Z,23.90
2023-02-02T02:40:13.202Z,15.73
2023-02-02T02:42:44.509Z,18.90
2023-02-02T02:45:12.593Z,22.23
2023-02-02T02:47:39.639Z,21.58
2023-02-02T02:50:06.540Z,20.40
2023-02-02T02:52:34.312Z,27.88
2023-02-02T02:55:02.322Z,18.52
2023-02-02T02:57:38.443Z,22.65
2023-02-02T03:00:07.964Z,20.58
2023-02-02T03:02:46.974Z,27.30
2023-02-02T03:05:28.764Z,20.23
2023-02-02T03:08:04.966Z,13.55
2023-02-02T03:10:31.822Z,20.13
2023-02-02T03:12:58.659Z,26.58
2023-02-02T03:15:25.784Z,20.05
2023-02-02T03:17:53.779Z,25.13
2023-02-02T03:20:21.060Z,26.70
2023-02-02T03:22:47.552Z,17.13
2023-02-02T03:25:14.382Z,20.27
2023-02-02T03:27:40.873Z,19.83
2023-02-02T03:30:08.934Z,18.23
2023-02-02T03:32:35.629Z,17.08
2023-02-02T03:35:02.190Z,23.33
2023-02-02T03:37:28.839Z,19.67
2023-02-02T03:39:55.607Z,24.20
2023-02-02T03:42:22.110Z,17.52
2023-02-02T03:44:48.707Z,19.75
2023-02-02T03:47:15.250Z,22.20
2023-02-02T03:49:41.953Z,15.68
2023-02-02T03:52:08.738Z,26.38
2023-02-02T03:54:35.439Z,20.77
2023-02-02T03:57:01.939Z,23.48
2023-02-02T03:59:28.614Z,26.95
2023-02-02T04:01:55.622Z,21.48
2023-02-02T04:04:22.300Z,15.15
2023-02-02T04:06:48.830Z,16.10
2023-02-02T04:09:15.594Z,22.33
2023-02-02T04:11:42.115Z,28.33
2023-02-02T04:14:09.911Z,18.23
2023-02-02T04:16:37.784Z,24.80
2023-02-02T04:19:05.155Z,23.40
2023-02-02T04:21:31.987Z,20.77
2023-02-02T04:23:58.588Z,24.10
2023-02-02T04:26:26.439Z,21.65
2023-02-02T04:28:53.523Z,22.42
2023-02-02T04:31:20.418Z,21.52
2023-02-02T04:33:47.127Z,22.08
2023-02-02T04:36:13.905Z,22.05
2023-02-02T04:38:40.567Z,24.95
2023-02-02T04:41:10.833Z,22.85
2023-02-02T04:43:37.886Z,24.20
2023-02-02T04:46:04.592Z,20.73
2023-02-02T04:48:31.326Z,23.70
2023-02-02T04:51:01.373Z,24.83
2023-02-02T04:53:28.466Z,22.50
2023-02-02T04:55:55.433Z,17.40
2023-02-02T04:58:22.032Z,18.88
2023-02-02T05:00:48.795Z,17.92
2023-02-02T05:03:15.455Z,18.77
2023-02-02T05:05:42.039Z,20.77
2023-02-02T05:08:09.816Z,17.00
2023-02-02T05:10:36.309Z,25.42
2023-02-02T05:13:02.907Z,18.35
2023-02-02T05:15:29.570Z,17.67
2023-02-02T05:17:56.113Z,18.52
2023-02-02T05:20:22.567Z,25.77
2023-02-02T05:22:50.238Z,20.15
2023-02-02T05:25:17.047Z,15.00
2023-02-02T05:27:44.193Z,19.95
2023-02-02T05:30:11.866Z,21.58
2023-02-02T05:32:38.833Z,24.77
2023-02-02T05:35:05.780Z,23.83
2023-02-02T05:37:32.436Z,16.33
2023-02-02T05:39:58.975Z,22.05
2023-02-02T05:42:25.706Z,20.85
2023-02-02T05:44:52.258Z,14.23
2023-02-02T05:47:18.819Z,17.73
2023-02-02T05:49:45.371Z,20.02
2023-02-02T05:52:16.134Z,18.75
2023-02-02T05:54:42.732Z,21.98
2023-02-02T05:57:09.272Z,18.25
2023-02-02T05:59:35.999Z,22.45
2023-02-02T06:02:02.545Z,24.13
2023-02-02T06:04:29.095Z,21.08
2023-02-02T06:06:55.601Z,20.88
2023-02-02T06:09:23.804Z,20.15
2023-02-02T06:11:50.427Z,16.15
2023-02-02T06:14:17.136Z,20.55
2023-02-02T06:16:43.710Z,19.83
2023-02-02T06:19:10.504Z,19.55
2023-02-02T06:21:37.148Z,15.93
2023-02-02T06:24:03.886Z,15.07
2023-02-02T06:26:40.161Z,17.40
2023-02-02T06:29:07.043Z,17.33
2023-02-02T06:31:34.464Z,18.60
2023-02-02T06:34:01.349Z,23.45
2023-02-02T06:36:27.821Z,24.23
2023-02-02T06:38:55.311Z,20.75
2023-02-02T06:41:22.260Z,14.40
2023-02-02T06:43:49.171Z,21.15
2023-02-02T06:46:16.040Z,25.27
2023-02-02T06:48:42.867Z,18.73
2023-02-02T06:51:09.342Z,15.35
2023-02-02T06:53:35.904Z,12.50
2023-02-02T06:56:03.774Z,20.75
2023-02-02T06:58:30.752Z,19.75
2023-02-02T07:01:08.807Z,16.08
2023-02-02T07:03:35.470Z,25.30
2023-02-02T07:06:12.363Z,20.40
2023-02-02T07:08:38.966Z,19.08
2023-02-02T07:11:13.894Z,16.90
2023-02-02T07:13:42.317Z,17.50
2023-02-02T07:16:13.133Z,15.63
2023-02-02T07:18:40.261Z,18.98
2023-02-02T07:21:07.209Z,18.80
2023-02-02T07:23:34.237Z,17.95
2023-02-02T07:26:04.998Z,21.08
2023-02-02T07:28:31.878Z,23.70
2023-02-02T07:30:58.747Z,17.48
2023-02-02T07:33:25.956Z,21.77
2023-02-02T07:35:52.625Z,18.92
2023-02-02T07:38:19.399Z,18.67
2023-02-02T07:40:46.182Z,22.05
2023-02-02T07:43:12.766Z,14.07
2023-02-02T07:45:39.891Z,14.70
2023-02-02T07:48:06.717Z,24.25
2023-02-02T07:50:33.351Z,22.83
2023-02-02T07:53:00.661Z,22.83
2023-02-02T07:55:27.848Z,19.98
2023-02-02T07:58:01.359Z,18.10
2023-02-02T08:00:30.040Z,17.50
2023-02-02T08:02:57.254Z,20.75
2023-02-02T08:05:24.343Z,16.50
2023-02-02T08:07:51.156Z,22.15
2023-02-02T08:10:21.934Z,14.98
2023-02-02T08:15:56.459Z,20.08
2023-02-02T08:18:23.176Z,16.27
2023-02-02T08:20:49.738Z,23.75
2023-02-02T08:23:16.988Z,18.20
2023-02-02T08:25:43.448Z,13.48
2023-02-02T08:28:10.370Z,18.52
2023-02-02T08:30:37.074Z,14.05
2023-02-02T08:33:03.869Z,14.30
2023-02-02T08:35:30.461Z,17.30
2023-02-02T08:37:57.164Z,22.38
2023-02-02T08:40:25.424Z,19.08
2023-02-02T08:42:55.538Z,18.63
2023-02-02T08:46:02.922Z,19.85
2023-02-02T08:48:12.025Z,24.30
2023-02-02T08:50:39.196Z,17.45
2023-02-02T08:53:05.751Z,19.02
2023-02-02T08:55:32.521Z,14.98
2023-02-02T08:57:59.196Z,19.70
2023-02-02T09:00:26.052Z,20.35
2023-02-02T09:02:52.683Z,22.98
2023-02-02T09:05:19.382Z,16.25
2023-02-02T09:07:46.383Z,14.73
2023-02-02T09:10:13.277Z,16.85
2023-02-02T09:12:39.747Z,21.92
2023-02-02T09:15:06.545Z,18.60
2023-02-02T09:17:33.305Z,19.98
2023-02-02T09:19:59.814Z,19.08
2023-02-02T09:22:28.784Z,24.83
2023-02-02T09:24:55.800Z,15.02
2023-02-02T09:27:22.482Z,15.48
2023-02-02T09:29:49.029Z,15.85
2023-02-02T09:32:15.806Z,19.08
2023-02-02T09:34:42.333Z,15.90
2023-02-02T09:37:08.905Z,17.27
2023-02-02T09:39:35.708Z,16.38
2023-02-02T09:42:05.324Z,17.17
2023-02-02T09:44:37.881Z,17.17
2023-02-02T09:47:10.523Z,15.32
2023-02-02T09:49:49.658Z,14.25
2023-02-02T09:52:23.975Z,23.85
2023-02-02T09:54:52.459Z,17.95
2023-02-02T09:57:27.251Z,17.25
2023-02-02T09:59:55.012Z,17.15
2023-02-02T10:02:23.830Z,18.50
2023-02-02T10:04:52.305Z,16.63
2023-02-02T10:07:25.257Z,15.18
2023-02-02T10:09:51.881Z,15.32
2023-02-02T10:12:37.282Z,22.42
2023-02-02T10:15:13.425Z,18.83
2023-02-02T10:17:58.130Z,15.68
2023-02-02T10:20:30.640Z,15.52
2023-02-02T10:22:59.036Z,13.75
2023-02-02T10:25:27.779Z,14.18
2023-02-02T10:28:17.412Z,12.77
2023-02-02T10:30:50.632Z,15.30
2023-02-02T10:33:34.018Z,17.85
2023-02-02T10:36:08.938Z,11.30
2023-02-02T10:41:13.977Z,12.23
2023-02-02T10:44:00.043Z,13.07
2023-02-02T10:46:37.159Z,11.55
2023-02-02T10:49:42.216Z,12.57
2023-02-02T10:52:12.035Z,11.52
2023-02-02T10:54:55.748Z,14.77
2023-02-02T10:57:32.753Z,11.45
2023-02-02T11:00:06.159Z,17.25
2023-02-02T11:02:33.102Z,13.23
2023-02-02T11:05:18.629Z,14.15
2023-02-02T11:07:45.249Z,11.85
2023-02-02T11:10:11.762Z,16.35
2023-02-02T11:12:42.328Z,14.57
2023-02-02T11:15:23.138Z,18.27
2023-02-02T11:17:49.769Z,10.48
2023-02-02T11:20:32.442Z,18.02
2023-02-02T11:23:03.106Z,17.38
2023-02-02T11:25:39.707Z,14.85
2023-02-02T11:28:24.303Z,14.10
2023-02-02T11:30:52.626Z,10.60
2023-02-02T11:33:21.125Z,14.85
2023-02-02T11:35:55.538Z,15.60
2023-02-02T11:38:22.092Z,14.82
2023-02-02T11:40:54.567Z,15.07
2023-02-02T11:43:26.619Z,10.18
2023-02-02T11:45:55.479Z,13.30
2023-02-02T11:48:23.229Z,14.15
2023-02-02T11:50:54.906Z,14.32
2023-02-02T11:53:24.679Z,17.83
2023-02-02T11:55:52.483Z,11.85
2023-02-02T11:58:29.843Z,13.95
2023-02-02T12:01:01.451Z,15.00
2023-02-02T12:03:32.587Z,9.70
2023-02-02T12:05:59.325Z,14.48
2023-02-02T12:08:25.893Z,15.57
2023-02-02T12:11:02.356Z,12.15
2023-02-02T12:13:28.970Z,11.25
2023-02-02T12:16:10.858Z,11.05
2023-02-02T12:19:12.737Z,14.20
2023-02-02T12:21:43.791Z,14.20
2023-02-02T12:24:16.439Z,12.23
2023-02-02T12:26:49.055Z,14.73
2023-02-02T12:29:24.634Z,12.88
2023-02-02T12:32:07.446Z,13.65
2023-02-02T12:34:40.579Z,14.55
2023-02-02T12:37:26.623Z,16.58
2023-02-02T12:39:53.336Z,12.88
2023-02-02T12:42:22.837Z,19.30
2023-02-02T12:44:52.592Z,14.65
2023-02-02T12:47:33.835Z,17.00
2023-02-02T12:50:08.799Z,13.00
2023-02-02T12:52:35.359Z,14.40
2023-02-02T12:55:16.997Z,11.52
2023-02-02T12:57:50.735Z,12.27
2023-02-02T13:00:24.170Z,12.77
2023-02-02T13:03:09.666Z,14.95
2023-02-02T13:08:08.448Z,15.95
2023-02-02T13:10:38.006Z,10.95
2023-02-02T13:13:08.523Z,12.20
2023-02-02T13:15:40.946Z,14.82
2023-02-02T13:18:27.748Z,11.68
2023-02-02T13:21:05.086Z,12.00
2023-02-02T13:23:40.464Z,12.80
2023-02-02T13:26:13.510Z,14.75
2023-02-02T13:28:58.157Z,11.88
2023-02-02T13:31:35.707Z,9.63
2023-02-02T13:34:11.998Z,11.20
2023-02-02T13:36:41.862Z,15.88
2023-02-02T13:39:13.402Z,12.82
2023-02-02T13:41:40.161Z,12.07
2023-02-02T13:44:09.652Z,11.93
2023-02-02T13:46:51.594Z,9.35
2023-02-02T13:49:18.173Z,19.35
2023-02-02T13:51:59.924Z,12.18
2023-02-02T13:54:45.961Z,12.82
2023-02-02T13:57:18.503Z,12.77
2023-02-02T13:59:54.486Z,12.25
2023-02-02T14:02:30.161Z,11.30
2023-02-02T14:04:58.298Z,9.68
2023-02-02T14:07:42.842Z,9.68
2023-02-02T14:10:21.322Z,14.00
2023-02-02T14:12:48.430Z,16.75
2023-02-02T14:15:15.090Z,10.63
2023-02-02T14:17:41.996Z,8.50
2023-02-02T14:20:28.423Z,12.80
2023-02-02T14:22:55.021Z,14.52
2023-02-02T14:25:33.867Z,11.27
2023-02-02T14:28:01.579Z,10.52
2023-02-02T14:30:32.807Z,13.23
2023-02-02T14:33:18.436Z,10.95
2023-02-02T14:35:45.018Z,14.80
2023-02-02T14:38:31.811Z,15.95
2023-02-02T14:41:05.083Z,12.55
2023-02-02T14:43:52.282Z,10.38
2023-02-02T14:46:21.820Z,12.80
2023-02-02T14:49:06.930Z,15.55
2023-02-02T14:51:35.059Z,12.25
2023-02-02T14:54:08.702Z,14.88
2023-02-02T14:56:49.716Z,11.85
2023-02-02T14:59:20.321Z,11.00
2023-02-02T15:01:54.118Z,8.35
2023-02-02T15:04:21.444Z,10.38
2023-02-02T15:06:48.722Z,14.27
2023-02-02T15:09:22.557Z,13.35
2023-02-02T15:12:10.725Z,12.90
2023-02-02T15:14:56.173Z,13.80
2023-02-02T15:17:25.609Z,9.88
2023-02-02T15:19:54.367Z,11.60
2023-02-02T15:22:26.892Z,13.40
2023-02-02T15:24:54.205Z,10.82
2023-02-02T15:27:22.402Z,16.05
2023-02-02T15:29:52.757Z,12.77
2023-02-02T15:32:22.486Z,11.73
2023-02-02T15:34:50.985Z,12.10
2023-02-02T15:37:23.503Z,13.98
2023-02-02T15:39:56.200Z,11.60
2023-02-02T15:42:43.630Z,11.55
2023-02-02T15:45:28.664Z,13.20
2023-02-02T15:47:59.024Z,17.27
2023-02-02T15:50:27.031Z,12.32
2023-02-02T15:52:54.613Z,13.52
2023-02-02T15:55:23.872Z,12.70
2023-02-02T15:57:55.389Z,13.23
2023-02-02T16:00:27.557Z,17.70
2023-02-02T16:03:00.562Z,14.32
2023-02-02T16:05:36.516Z,15.90
2023-02-02T16:08:06.356Z,12.48
2023-02-02T16:10:34.092Z,13.82
2023-02-02T16:13:00.753Z,17.48
2023-02-02T16:15:28.456Z,13.05
2023-02-02T16:18:11.867Z,10.18
2023-02-02T16:20:39.115Z,14.50
2023-02-02T16:23:11.266Z,10.93
2023-02-02T16:25:42.950Z,12.93
2023-02-02T16:28:13.184Z,15.45
2023-02-02T16:30:40.076Z,15.23
2023-02-02T16:33:25.540Z,15.07
2023-02-02T16:35:52.067Z,16.63
2023-02-02T16:38:24.593Z,16.05
2023-02-02T16:41:04.588Z,11.90
2023-02-02T16:43:31.393Z,12.30
2023-02-02T16:46:07.646Z,15.60
2023-02-02T16:48:37.063Z,11.30
2023-02-02T16:51:06.381Z,11.18
2023-02-02T16:53:33.614Z,12.45
2023-02-02T16:56:00.260Z,12.90
2023-02-02T16:58:27.468Z,13.18
2023-02-02T17:01:13.876Z,10.32
2023-02-02T17:03:46.177Z,16.73
2023-02-02T17:06:13.699Z,12.20
2023-02-02T17:08:40.995Z,14.13
2023-02-02T17:11:20.011Z,15.85
2023-02-02T17:13:46.574Z,9.50
2023-02-02T17:16:16.184Z,13.75
2023-02-02T17:18:43.044Z,19.05
2023-02-02T17:21:13.844Z,14.10
2023-02-02T17:23:41.008Z,16.70
2023-02-02T17:26:08.327Z,17.25
2023-02-02T17:28:35.828Z,22.10
2023-02-02T17:31:03.626Z,17.92
2023-02-02T17:33:34.040Z,19.45
2023-02-02T17:36:01.219Z,17.67
2023-02-02T17:38:28.031Z,16.25
2023-02-02T17:40:55.883Z,16.95
2023-02-02T17:43:22.331Z,18.00
2023-02-02T17:45:49.543Z,18.77
2023-02-02T17:48:17.196Z,16.83
2023-02-02T17:50:43.845Z,21.48
2023-02-02T17:53:14.799Z,31.10
2023-02-02T17:55:42.556Z,20.90
2023-02-02T17:58:10.532Z,18.90
2023-02-02T18:00:38.124Z,26.85
2023-02-02T18:03:10.002Z,23.67
2023-02-02T18:05:37.528Z,25.65
2023-02-02T18:08:04.414Z,17.58
2023-02-02T18:10:31.651Z,15.07
2023-02-02T18:12:58.245Z,17.50
2023-02-02T18:15:25.076Z,19.33
2023-02-02T18:17:51.966Z,21.67
2023-02-02T18:20:19.359Z,23.88
2023-02-02T18:22:48.266Z,22.23
2023-02-02T18:25:15.632Z,18.63
2023-02-02T18:27:42.190Z,19.23
2023-02-02T18:30:09.352Z,16.77
2023-02-02T18:32:37.289Z,18.30
2023-02-02T18:35:05.136Z,22.67
2023-02-02T18:37:31.704Z,15.40
2023-02-02T18:39:58.232Z,18.25
2023-02-02T18:42:26.366Z,14.82
2023-02-02T18:44:53.657Z,18.58
2023-02-02T18:47:20.288Z,18.95
2023-02-02T18:49:47.170Z,13.70
2023-02-02T18:52:13.686Z,17.33
2023-02-02T18:54:42.703Z,19.20
2023-02-02T18:57:11.308Z,22.73
2023-02-02T18:59:37.860Z,18.05
2023-02-02T19:02:04.561Z,18.95
2023-02-02T19:04:31.282Z,23.40
2023-02-02T19:07:16.474Z,21.08
2023-02-02T19:12:12.618Z,22.17
2023-02-02T19:14:39.489Z,24.65
2023-02-02T19:17:16.133Z,28.77
2023-02-02T19:19:43.259Z,20.27
2023-02-02T19:22:20.227Z,21.85
2023-02-02T19:24:46.833Z,15.25
2023-02-02T19:27:23.464Z,20.92
2023-02-02T19:29:52.315Z,20.42
2023-02-02T19:32:21.853Z,19.27
2023-02-02T19:34:49.230Z,18.38
2023-02-02T19:37:22.195Z,24.23
2023-02-02T19:39:48.734Z,25.83
2023-02-02T19:42:15.458Z,23.77
2023-02-02T19:44:42.269Z,19.85
2023-02-02T19:47:20.944Z,16.90
2023-02-02T19:49:47.588Z,26.17
2023-02-02T19:52:19.397Z,14.27
2023-02-02T19:54:48.003Z,25.50
2023-02-02T19:57:26.934Z,31.38
2023-02-02T19:59:54.077Z,21.75
2023-02-02T20:02:23.733Z,22.10
2023-02-02T20:04:58.752Z,18.20
2023-02-02T20:07:25.436Z,22.15
2023-02-02T20:09:51.947Z,17.27
2023-02-02T20:12:22.653Z,21.80
2023-02-02T20:14:49.235Z,21.42
2023-02-02T20:17:23.309Z,25.08
2023-02-02T20:19:49.874Z,25.02
2023-02-02T20:22:29.160Z,26.27
2023-02-02T20:25:01.115Z,21.52
2023-02-02T20:27:28.576Z,28.00
2023-02-02T20:29:57.852Z,24.98
2023-02-02T20:32:26.678Z,25.05
2023-02-02T20:34:57.548Z,24.17
2023-02-02T20:37:26.178Z,20.40
2023-02-02T20:39:56.298Z,19.45
2023-02-02T20:42:22.968Z,24.20
2023-02-02T20:44:49.585Z,27.52
2023-02-02T20:47:16.224Z,27.90
2023-02-02T20:49:43.173Z,23.13
2023-02-02T20:52:12.087Z,25.23
2023-02-02T20:54:39.545Z,20.33
2023-02-02T20:57:06.871Z,23.70
2023-02-02T20:59:33.395Z,32.80
2023-02-02T21:02:00.113Z,23.70
2023-02-02T21:04:26.679Z,21.73
2023-02-02T21:06:55.399Z,20.92
2023-02-02T21:09:21.846Z,25.55
2023-02-02T21:11:48.507Z,21.40
2023-02-02T21:14:15.686Z,31.25
2023-02-02T21:16:42.435Z,28.70
2023-02-02T21:19:09.090Z,22.45
2023-02-02T21:21:35.989Z,22.40
2023-02-02T21:24:02.799Z,24.88
2023-02-02T21:26:30.879Z,19.05
2023-02-02T21:28:58.862Z,24.70
2023-02-02T21:31:26.293Z,21.75
2023-02-02T21:33:53.309Z,23.67
2023-02-02T21:36:20.822Z,26.10
2023-02-02T21:38:47.357Z,18.08
2023-02-02T21:41:14.502Z,19.88
2023-02-02T21:43:41.096Z,22.85
2023-02-02T21:46:23.048Z,20.38
2023-02-02T21:48:49.696Z,25.10
2023-02-02T21:51:19.105Z,22.15
2023-02-02T21:53:45.836Z,23.23
2023-02-02T21:56:23.813Z,33.10
2023-02-02T21:58:57.020Z,31.25
2023-02-02T22:01:33.188Z,22.60
2023-02-02T22:04:07.909Z,19.10
2023-02-02T22:06:36.728Z,22.35
2023-02-02T22:09:11.974Z,24.95
2023-02-02T22:11:47.177Z,22.23
2023-02-02T22:14:21.548Z,23.42
2023-02-02T22:20:21.952Z,20.25
2023-02-02T22:23:13.323Z,26.58
2023-02-02T22:26:03.081Z,16.13
2023-02-02T22:28:32.932Z,18.48
2023-02-02T22:31:09.847Z,20.90
2023-02-02T22:33:45.701Z,24.90
2023-02-02T22:36:12.214Z,27.63
2023-02-02T22:38:39.013Z,18.83
2023-02-02T22:41:06.533Z,19.35
2023-02-02T22:43:33.002Z,21.40
2023-02-02T22:45:59.861Z,18.13
2023-02-02T22:48:26.589Z,22.52
2023-02-02T22:50:53.564Z,17.83
2023-02-02T22:53:20.004Z,26.83
2023-02-02T22:59:07.100Z,17.20
2023-02-02T23:01:39.276Z,13.43
2023-02-02T23:04:06.535Z,28.77
2023-02-02T23:06:38.817Z,18.33
2023-02-02T23:09:07.609Z,18.02
2023-02-02T23:11:34.117Z,21.40
2023-02-02T23:14:00.676Z,19.13
2023-02-02T23:16:27.186Z,12.73
2023-02-02T23:18:53.986Z,23.02
2023-02-02T23:21:20.867Z,17.38
2023-02-02T23:23:47.401Z,14.93
2023-02-02T23:26:13.852Z,21.90
2023-02-02T23:28:40.554Z,18.27
2023-02-02T23:31:07.154Z,16.65
2023-02-02T23:33:33.871Z,17.13
2023-02-02T23:36:00.577Z,16.10
2023-02-02T23:38:27.308Z,15.82
2023-02-02T23:40:54.468Z,17.40
2023-02-02T23:46:49.800Z,18.45
2023-02-02T23:49:42.500Z,21.50
2023-02-02T23:52:09.456Z,14.90
